sensor_id;sensor_type;location;lat;lon;timestamp;pressure;altitude;pressure_sealevel;temperature;humidity
54042;BME280;41156;51.508;5.406;2023-06-22T00:00:14;101761.16;;;21.01;74.00
54042;BME280;41156;51.508;5.406;2023-06-22T00:03:14;101754.47;;;20.92;74.88
54042;BME280;41156;51.508;5.406;2023-06-22T00:06:15;101744.28;;;20.87;75.00
54042;BME280;41156;51.508;5.406;2023-06-22T00:09:16;101742.09;;;20.89;75.00
54042;BME280;41156;51.508;5.406;2023-06-22T00:12:16;101753.59;;;20.86;75.53
54042;BME280;41156;51.508;5.406;2023-06-22T00:15:16;101748.63;;;20.83;75.68
54042;BME280;41156;51.508;5.406;2023-06-22T00:18:16;101746.66;;;20.78;76.18
54042;BME280;41156;51.508;5.406;2023-06-22T00:21:17;101746.88;;;20.72;76.08
54042;BME280;41156;51.508;5.406;2023-06-22T00:24:20;101756.50;;;20.69;76.15
54042;BME280;41156;51.508;5.406;2023-06-22T00:27:21;101755.06;;;20.66;75.91
54042;BME280;41156;51.508;5.406;2023-06-22T00:30:21;101752.03;;;20.63;76.79
54042;BME280;41156;51.508;5.406;2023-06-22T00:33:21;101748.13;;;20.59;76.86
54042;BME280;41156;51.508;5.406;2023-06-22T00:36:22;101748.66;;;20.56;77.39
54042;BME280;41156;51.508;5.406;2023-06-22T00:39:24;101751.34;;;20.50;77.45
54042;BME280;41156;51.508;5.406;2023-06-22T00:42:25;101750.44;;;20.45;77.57
54042;BME280;41156;51.508;5.406;2023-06-22T00:45:26;101745.75;;;20.40;77.61
54042;BME280;41156;51.508;5.406;2023-06-22T00:48:26;101745.97;;;20.33;78.06
54042;BME280;41156;51.508;5.406;2023-06-22T00:51:27;101748.91;;;20.27;78.73
54042;BME280;41156;51.508;5.406;2023-06-22T00:54:28;101737.34;;;20.25;78.50
54042;BME280;41156;51.508;5.406;2023-06-22T00:57:29;101739.22;;;20.19;79.23
54042;BME280;41156;51.508;5.406;2023-06-22T01:00:29;101742.16;;;20.12;79.61
54042;BME280;41156;51.508;5.406;2023-06-22T01:03:29;101735.84;;;20.12;79.89
54042;BME280;41156;51.508;5.406;2023-06-22T01:06:35;101739.09;;;20.09;82.02
54042;BME280;41156;51.508;5.406;2023-06-22T01:13:52;101737.00;;;19.94;82.30
54042;BME280;41156;51.508;5.406;2023-06-22T01:16:57;101735.59;;;19.91;81.00
54042;BME280;41156;51.508;5.406;2023-06-22T01:20:00;101738.84;;;19.88;81.37
54042;BME280;41156;51.508;5.406;2023-06-22T01:23:25;101739.13;;;19.87;84.06
54042;BME280;41156;51.508;5.406;2023-06-22T01:29:51;101749.31;;;19.91;82.80
54042;BME280;41156;51.508;5.406;2023-06-22T01:32:56;101738.09;;;19.93;82.42
54042;BME280;41156;51.508;5.406;2023-06-22T01:35:57;101740.31;;;19.96;81.34
54042;BME280;41156;51.508;5.406;2023-06-22T01:38:58;101731.84;;;19.98;81.82
54042;BME280;41156;51.508;5.406;2023-06-22T01:41:59;101730.16;;;19.96;82.87
54042;BME280;41156;51.508;5.406;2023-06-22T01:45:01;101721.13;;;19.96;82.66
54042;BME280;41156;51.508;5.406;2023-06-22T01:48:02;101736.75;;;19.95;81.74
54042;BME280;41156;51.508;5.406;2023-06-22T01:51:03;101734.53;;;19.92;82.05
54042;BME280;41156;51.508;5.406;2023-06-22T01:54:06;101730.38;;;19.90;83.80
54042;BME280;41156;51.508;5.406;2023-06-22T01:57:07;101724.56;;;19.86;82.37
54042;BME280;41156;51.508;5.406;2023-06-22T02:00:12;101737.72;;;19.84;84.69
54042;BME280;41156;51.508;5.406;2023-06-22T02:03:19;101726.19;;;19.82;84.49
54042;BME280;41156;51.508;5.406;2023-06-22T02:06:24;101723.13;;;19.78;84.69
54042;BME280;41156;51.508;5.406;2023-06-22T02:09:29;101732.44;;;19.77;86.54
54042;BME280;41156;51.508;5.406;2023-06-22T02:12:30;101725.28;;;19.76;83.56
54042;BME280;41156;51.508;5.406;2023-06-22T02:15:32;101726.38;;;19.75;84.21
54042;BME280;41156;51.508;5.406;2023-06-22T02:18:33;101725.78;;;19.73;83.76
54042;BME280;41156;51.508;5.406;2023-06-22T02:21:35;101723.53;;;19.70;84.30
54042;BME280;41156;51.508;5.406;2023-06-22T02:24:36;101720.19;;;19.68;84.66
54042;BME280;41156;51.508;5.406;2023-06-22T02:27:36;101716.06;;;19.66;84.79
54042;BME280;41156;51.508;5.406;2023-06-22T02:30:40;101715.50;;;19.64;85.36
54042;BME280;41156;51.508;5.406;2023-06-22T02:33:40;101707.78;;;19.60;85.39
54042;BME280;41156;51.508;5.406;2023-06-22T02:36:41;101703.31;;;19.54;86.00
54042;BME280;41156;51.508;5.406;2023-06-22T02:39:51;101707.41;;;19.52;86.25
54042;BME280;41156;51.508;5.406;2023-06-22T02:42:51;101707.66;;;19.50;86.32
54042;BME280;41156;51.508;5.406;2023-06-22T02:45:51;101700.19;;;19.46;86.97
54042;BME280;41156;51.508;5.406;2023-06-22T02:48:52;101697.13;;;19.42;86.71
54042;BME280;41156;51.508;5.406;2023-06-22T02:51:52;101697.06;;;19.37;86.75
54042;BME280;41156;51.508;5.406;2023-06-22T02:54:53;101697.56;;;19.34;87.05
54042;BME280;41156;51.508;5.406;2023-06-22T02:57:53;101702.13;;;19.28;88.32
54042;BME280;41156;51.508;5.406;2023-06-22T03:00:54;101694.16;;;19.27;87.58
54042;BME280;41156;51.508;5.406;2023-06-22T03:03:54;101692.19;;;19.22;88.32
54042;BME280;41156;51.508;5.406;2023-06-22T03:06:54;101681.75;;;19.19;88.69
54042;BME280;41156;51.508;5.406;2023-06-22T03:09:55;101672.66;;;19.18;88.41
54042;BME280;41156;51.508;5.406;2023-06-22T03:12:55;101677.56;;;19.16;89.00
54042;BME280;41156;51.508;5.406;2023-06-22T03:15:55;101671.78;;;19.13;89.12
54042;BME280;41156;51.508;5.406;2023-06-22T03:18:56;101671.22;;;19.11;89.30
54042;BME280;41156;51.508;5.406;2023-06-22T03:21:59;101668.16;;;19.07;90.16
54042;BME280;41156;51.508;5.406;2023-06-22T03:24:59;101667.22;;;19.01;89.76
54042;BME280;41156;51.508;5.406;2023-06-22T03:27:59;101656.53;;;19.00;90.43
54042;BME280;41156;51.508;5.406;2023-06-22T03:31:00;101661.19;;;18.99;90.47
54042;BME280;41156;51.508;5.406;2023-06-22T03:34:00;101669.91;;;18.96;91.07
54042;BME280;41156;51.508;5.406;2023-06-22T03:37:01;101660.28;;;18.94;90.86
54042;BME280;41156;51.508;5.406;2023-06-22T03:40:02;101661.34;;;18.93;91.47
54042;BME280;41156;51.508;5.406;2023-06-22T03:43:05;101652.06;;;18.94;91.47
54042;BME280;41156;51.508;5.406;2023-06-22T03:46:05;101659.44;;;18.93;91.29
54042;BME280;41156;51.508;5.406;2023-06-22T03:49:06;101660.53;;;18.92;91.56
54042;BME280;41156;51.508;5.406;2023-06-22T03:52:06;101648.72;;;18.92;91.63
54042;BME280;41156;51.508;5.406;2023-06-22T03:55:07;101646.28;;;18.90;91.51
54042;BME280;41156;51.508;5.406;2023-06-22T03:58:08;101652.81;;;18.89;92.35
54042;BME280;41156;51.508;5.406;2023-06-22T04:01:09;101645.44;;;18.90;92.60
54042;BME280;41156;51.508;5.406;2023-06-22T04:04:11;101650.91;;;18.90;93.27
54042;BME280;41156;51.508;5.406;2023-06-22T04:07:12;101656.38;;;18.90;93.05
54042;BME280;41156;51.508;5.406;2023-06-22T04:10:13;101648.72;;;18.92;93.13
54042;BME280;41156;51.508;5.406;2023-06-22T04:13:13;101652.06;;;18.94;93.05
54042;BME280;41156;51.508;5.406;2023-06-22T04:16:13;101650.66;;;18.91;93.66
54042;BME280;41156;51.508;5.406;2023-06-22T04:19:14;101647.41;;;18.94;93.22
54042;BME280;41156;51.508;5.406;2023-06-22T04:22:17;101647.16;;;18.96;93.33
54042;BME280;41156;51.508;5.406;2023-06-22T04:25:18;101653.22;;;18.98;93.47
54042;BME280;41156;51.508;5.406;2023-06-22T04:28:18;101651.56;;;18.97;94.26
54042;BME280;41156;51.508;5.406;2023-06-22T04:31:18;101660.69;;;19.02;94.23
54042;BME280;41156;51.508;5.406;2023-06-22T04:34:19;101653.34;;;19.08;94.15
54042;BME280;41156;51.508;5.406;2023-06-22T04:37:19;101654.03;;;19.15;93.57
54042;BME280;41156;51.508;5.406;2023-06-22T04:40:23;101654.66;;;19.22;93.86
54042;BME280;41156;51.508;5.406;2023-06-22T04:43:23;101652.56;;;19.30;93.21
54042;BME280;41156;51.508;5.406;2023-06-22T04:46:23;101658.69;;;19.37;93.39
54042;BME280;41156;51.508;5.406;2023-06-22T04:49:24;101662.88;;;19.45;93.15
54042;BME280;41156;51.508;5.406;2023-06-22T04:52:33;101664.88;;;19.49;93.17
54042;BME280;41156;51.508;5.406;2023-06-22T04:55:33;101655.94;;;19.59;92.92
54042;BME280;41156;51.508;5.406;2023-06-22T04:58:33;101655.19;;;19.64;93.33
54042;BME280;41156;51.508;5.406;2023-06-22T05:01:34;101655.25;;;19.69;92.95
54042;BME280;41156;51.508;5.406;2023-06-22T05:04:35;101651.47;;;19.75;93.09
54042;BME280;41156;51.508;5.406;2023-06-22T05:07:39;101657.31;;;19.78;92.67
54042;BME280;41156;51.508;5.406;2023-06-22T05:10:43;101646.41;;;19.84;92.48
54042;BME280;41156;51.508;5.406;2023-06-22T05:13:43;101646.69;;;19.87;92.43
54042;BME280;41156;51.508;5.406;2023-06-22T05:16:44;101650.56;;;19.91;92.69
54042;BME280;41156;51.508;5.406;2023-06-22T05:19:45;101647.56;;;19.93;92.83
54042;BME280;41156;51.508;5.406;2023-06-22T05:22:48;101648.47;;;19.99;92.57
54042;BME280;41156;51.508;5.406;2023-06-22T05:25:48;101652.34;;;20.03;92.39
54042;BME280;41156;51.508;5.406;2023-06-22T05:28:48;101647.94;;;20.02;92.43
54042;BME280;41156;51.508;5.406;2023-06-22T05:31:49;101654.00;;;20.04;92.68
54042;BME280;41156;51.508;5.406;2023-06-22T05:34:49;101643.34;;;20.07;92.86
54042;BME280;41156;51.508;5.406;2023-06-22T05:37:49;101649.38;;;20.09;92.89
54042;BME280;41156;51.508;5.406;2023-06-22T05:40:50;101648.06;;;20.12;93.48
54042;BME280;41156;51.508;5.406;2023-06-22T05:43:50;101635.72;;;20.14;93.44
54042;BME280;41156;51.508;5.406;2023-06-22T05:46:51;101635.97;;;20.13;93.83
54042;BME280;41156;51.508;5.406;2023-06-22T05:49:51;101640.44;;;20.19;93.70
54042;BME280;41156;51.508;5.406;2023-06-22T05:52:51;101650.38;;;20.25;94.04
54042;BME280;41156;51.508;5.406;2023-06-22T05:55:52;101646.06;;;20.34;93.72
54042;BME280;41156;51.508;5.406;2023-06-22T05:58:52;101645.28;;;20.39;94.28
54042;BME280;41156;51.508;5.406;2023-06-22T06:01:52;101644.50;;;20.44;94.49
54042;BME280;41156;51.508;5.406;2023-06-22T06:04:53;101646.16;;;20.50;94.69
54042;BME280;41156;51.508;5.406;2023-06-22T06:07:54;101639.34;;;20.52;94.22
54042;BME280;41156;51.508;5.406;2023-06-22T06:10:54;101639.69;;;20.61;94.11
54042;BME280;41156;51.508;5.406;2023-06-22T06:13:55;101632.09;;;20.68;93.88
54042;BME280;41156;51.508;5.406;2023-06-22T06:16:55;101629.13;;;20.75;93.79
54042;BME280;41156;51.508;5.406;2023-06-22T06:19:55;101637.13;;;20.82;93.85
54042;BME280;41156;51.508;5.406;2023-06-22T06:22:56;101635.50;;;20.86;93.63
54042;BME280;41156;51.508;5.406;2023-06-22T06:25:56;101646.22;;;20.87;93.89
54042;BME280;41156;51.508;5.406;2023-06-22T06:28:56;101641.56;;;20.93;93.97
54042;BME280;41156;51.508;5.406;2023-06-22T06:31:57;101642.44;;;20.99;93.49
54042;BME280;41156;51.508;5.406;2023-06-22T06:34:58;101642.22;;;21.05;93.30
54042;BME280;41156;51.508;5.406;2023-06-22T06:37:58;101631.53;;;21.14;93.61
54042;BME280;41156;51.508;5.406;2023-06-22T06:40:58;101637.06;;;21.19;93.35
54042;BME280;41156;51.508;5.406;2023-06-22T06:43:59;101632.97;;;21.27;93.69
54042;BME280;41156;51.508;5.406;2023-06-22T06:47:00;101640.13;;;21.33;93.40
54042;BME280;41156;51.508;5.406;2023-06-22T06:50:01;101652.56;;;21.46;93.01
54042;BME280;41156;51.508;5.406;2023-06-22T06:53:01;101647.88;;;21.47;93.07
54042;BME280;41156;51.508;5.406;2023-06-22T06:56:02;101649.88;;;21.51;92.45
54042;BME280;41156;51.508;5.406;2023-06-22T06:59:03;101648.78;;;21.52;92.89
54042;BME280;41156;51.508;5.406;2023-06-22T07:02:04;101649.34;;;21.54;93.05
54042;BME280;41156;51.508;5.406;2023-06-22T07:05:05;101636.38;;;21.50;92.92
54042;BME280;41156;51.508;5.406;2023-06-22T07:08:05;101635.84;;;21.53;92.62
54042;BME280;41156;51.508;5.406;2023-06-22T07:11:06;101642.47;;;21.57;92.20
54042;BME280;41156;51.508;5.406;2023-06-22T07:14:06;101636.44;;;21.60;92.38
54042;BME280;41156;51.508;5.406;2023-06-22T07:17:06;101634.50;;;21.60;92.48
54042;BME280;41156;51.508;5.406;2023-06-22T07:20:07;101637.53;;;21.64;92.33
54042;BME280;41156;51.508;5.406;2023-06-22T07:23:11;101632.88;;;21.65;92.42
54042;BME280;41156;51.508;5.406;2023-06-22T07:26:12;101633.72;;;21.70;91.45
54042;BME280;41156;51.508;5.406;2023-06-22T07:29:12;101640.31;;;21.74;91.85
54042;BME280;41156;51.508;5.406;2023-06-22T07:32:13;101639.78;;;21.77;91.62
54042;BME280;41156;51.508;5.406;2023-06-22T07:35:13;101632.06;;;21.74;91.57
54042;BME280;41156;51.508;5.406;2023-06-22T07:38:14;101624.63;;;21.75;92.23
54042;BME280;41156;51.508;5.406;2023-06-22T07:41:15;101613.94;;;21.73;91.68
54042;BME280;41156;51.508;5.406;2023-06-22T07:44:16;101604.03;;;21.77;92.16
54042;BME280;41156;51.508;5.406;2023-06-22T07:47:16;101595.50;;;21.84;92.50
54042;BME280;41156;51.508;5.406;2023-06-22T07:50:19;101596.34;;;21.90;92.06
54042;BME280;41156;51.508;5.406;2023-06-22T07:53:20;101590.28;;;21.93;93.06
54042;BME280;41156;51.508;5.406;2023-06-22T07:56:21;101572.16;;;21.97;93.91
54042;BME280;41156;51.508;5.406;2023-06-22T07:59:21;101559.75;;;22.05;94.76
54042;BME280;41156;51.508;5.406;2023-06-22T08:02:21;101555.38;;;22.09;94.53
54042;BME280;41156;51.508;5.406;2023-06-22T08:05:22;101558.94;;;22.14;93.81
54042;BME280;41156;51.508;5.406;2023-06-22T08:08:22;101541.31;;;22.21;93.76
54042;BME280;41156;51.508;5.406;2023-06-22T08:11:23;101532.53;;;22.29;93.72
54042;BME280;41156;51.508;5.406;2023-06-22T08:14:25;101536.09;;;22.34;93.23
54042;BME280;41156;51.508;5.406;2023-06-22T08:17:26;101541.31;;;22.41;92.30
54042;BME280;41156;51.508;5.406;2023-06-22T08:20:26;101534.72;;;22.37;92.07
54042;BME280;41156;51.508;5.406;2023-06-22T08:23:27;101531.16;;;22.42;91.80
54042;BME280;41156;51.508;5.406;2023-06-22T08:26:27;101532.78;;;22.43;91.67
54042;BME280;41156;51.508;5.406;2023-06-22T08:29:27;101530.56;;;22.45;91.31
54042;BME280;41156;51.508;5.406;2023-06-22T08:32:28;101530.84;;;22.48;91.25
54042;BME280;41156;51.508;5.406;2023-06-22T08:35:28;101531.66;;;22.54;91.26
54042;BME280;41156;51.508;5.406;2023-06-22T08:38:29;101536.88;;;22.56;91.06
54042;BME280;41156;51.508;5.406;2023-06-22T08:41:29;101533.03;;;22.57;91.46
54042;BME280;41156;51.508;5.406;2023-06-22T08:44:30;101538.56;;;22.57;91.01
54042;BME280;41156;51.508;5.406;2023-06-22T08:47:30;101526.94;;;22.60;90.76
54042;BME280;41156;51.508;5.406;2023-06-22T08:50:30;101527.25;;;22.63;90.08
54042;BME280;41156;51.508;5.406;2023-06-22T08:53:31;101526.66;;;22.66;90.49
54042;BME280;41156;51.508;5.406;2023-06-22T08:56:31;101525.84;;;22.66;90.11
54042;BME280;41156;51.508;5.406;2023-06-22T08:59:31;101515.63;;;22.66;90.31
54042;BME280;41156;51.508;5.406;2023-06-22T09:02:32;101517.31;;;22.67;89.68
54042;BME280;41156;51.508;5.406;2023-06-22T09:05:32;101512.06;;;22.71;89.90
54042;BME280;41156;51.508;5.406;2023-06-22T09:08:32;101511.50;;;22.74;89.55
54042;BME280;41156;51.508;5.406;2023-06-22T09:11:33;101509.28;;;22.76;89.76
54042;BME280;41156;51.508;5.406;2023-06-22T09:14:33;101506.53;;;22.76;89.08
54042;BME280;41156;51.508;5.406;2023-06-22T09:17:33;101505.69;;;22.81;89.55
54042;BME280;41156;51.508;5.406;2023-06-22T09:20:34;101504.31;;;22.83;88.58
54042;BME280;41156;51.508;5.406;2023-06-22T09:23:34;101493.53;;;22.92;87.72
54042;BME280;41156;51.508;5.406;2023-06-22T09:26:35;101494.03;;;22.99;86.31
54042;BME280;41156;51.508;5.406;2023-06-22T09:29:35;101500.34;;;23.05;85.83
54042;BME280;41156;51.508;5.406;2023-06-22T09:32:36;101507.22;;;23.13;85.12
54042;BME280;41156;51.508;5.406;2023-06-22T09:35:37;101501.97;;;23.16;84.28
54042;BME280;41156;51.508;5.406;2023-06-22T09:38:37;101509.09;;;23.22;83.37
54042;BME280;41156;51.508;5.406;2023-06-22T09:41:38;101498.56;;;23.30;82.88
54042;BME280;41156;51.508;5.406;2023-06-22T09:44:38;101489.22;;;23.31;81.96
54042;BME280;41156;51.508;5.406;2023-06-22T09:47:39;101496.63;;;23.35;81.98
54042;BME280;41156;51.508;5.406;2023-06-22T09:50:39;101490.25;;;23.40;81.31
54042;BME280;41156;51.508;5.406;2023-06-22T10:31:36;101497.88;;;23.03;79.48
54042;BME280;41156;51.508;5.406;2023-06-22T10:34:36;101501.19;;;23.11;80.43
54042;BME280;41156;51.508;5.406;2023-06-22T10:37:37;101504.22;;;23.09;80.56
54042;BME280;41156;51.508;5.406;2023-06-22T10:40:38;101508.91;;;23.08;81.50
54042;BME280;41156;51.508;5.406;2023-06-22T10:43:39;101518.00;;;23.09;82.50
54042;BME280;41156;51.508;5.406;2023-06-22T10:46:40;101519.66;;;23.10;83.01
54042;BME280;41156;51.508;5.406;2023-06-22T10:49:40;101522.41;;;23.10;83.76
54042;BME280;41156;51.508;5.406;2023-06-22T10:52:41;101524.88;;;23.06;84.91
54042;BME280;41156;51.508;5.406;2023-06-22T10:55:42;101540.06;;;22.99;86.41
54042;BME280;41156;51.508;5.406;2023-06-22T10:58:43;101530.97;;;22.93;88.20
54042;BME280;41156;51.508;5.406;2023-06-22T11:01:43;101528.53;;;22.81;89.70
54042;BME280;41156;51.508;5.406;2023-06-22T11:04:43;101531.38;;;22.61;92.00
54042;BME280;41156;51.508;5.406;2023-06-22T11:07:44;101531.97;;;22.42;94.33
54042;BME280;41156;51.508;5.406;2023-06-22T11:10:44;101526.22;;;22.28;97.17
54042;BME280;41156;51.508;5.406;2023-06-22T11:13:45;101526.44;;;22.16;99.72
54042;BME280;41156;51.508;5.406;2023-06-22T11:16:45;101532.81;;;22.07;100.00
54042;BME280;41156;51.508;5.406;2023-06-22T11:19:46;101530.03;;;21.96;100.00
54042;BME280;41156;51.508;5.406;2023-06-22T11:22:47;101530.56;;;21.88;100.00
54042;BME280;41156;51.508;5.406;2023-06-22T11:25:47;101531.97;;;21.80;100.00
54042;BME280;41156;51.508;5.406;2023-06-22T11:28:47;101536.34;;;21.71;100.00
54042;BME280;41156;51.508;5.406;2023-06-22T11:31:48;101541.81;;;21.61;100.00
54042;BME280;41156;51.508;5.406;2023-06-22T11:34:48;101536.03;;;21.52;100.00
54042;BME280;41156;51.508;5.406;2023-06-22T11:37:52;101541.50;;;21.37;100.00
54042;BME280;41156;51.508;5.406;2023-06-22T11:40:52;101541.72;;;21.25;100.00
54042;BME280;41156;51.508;5.406;2023-06-22T11:43:53;101549.91;;;21.15;100.00
54042;BME280;41156;51.508;5.406;2023-06-22T11:46:53;101523.19;;;21.00;100.00
54042;BME280;41156;51.508;5.406;2023-06-22T11:49:54;101510.28;;;20.90;100.00
54042;BME280;41156;51.508;5.406;2023-06-22T11:52:54;101490.97;;;20.80;100.00
54042;BME280;41156;51.508;5.406;2023-06-22T11:55:55;101484.91;;;20.73;100.00
54042;BME280;41156;51.508;5.406;2023-06-22T11:58:56;101464.84;;;20.67;100.00
54042;BME280;41156;51.508;5.406;2023-06-22T12:01:57;101467.81;;;20.60;100.00
54042;BME280;41156;51.508;5.406;2023-06-22T12:04:58;101461.97;;;20.51;100.00
54042;BME280;41156;51.508;5.406;2023-06-22T12:07:58;101470.44;;;20.45;100.00
54042;BME280;41156;51.508;5.406;2023-06-22T12:10:59;101461.94;;;20.41;100.00
54042;BME280;41156;51.508;5.406;2023-06-22T12:13:59;101456.44;;;20.41;100.00
54042;BME280;41156;51.508;5.406;2023-06-22T12:17:02;101449.59;;;20.44;100.00
54042;BME280;41156;51.508;5.406;2023-06-22T12:20:05;101439.19;;;20.46;100.00
54042;BME280;41156;51.508;5.406;2023-06-22T12:23:06;101437.28;;;20.51;100.00
54042;BME280;41156;51.508;5.406;2023-06-22T12:26:06;101441.41;;;20.54;100.00
54042;BME280;41156;51.508;5.406;2023-06-22T12:29:06;101446.34;;;20.52;100.00
54042;BME280;41156;51.508;5.406;2023-06-22T12:32:07;101463.34;;;20.44;100.00
54042;BME280;41156;51.508;5.406;2023-06-22T12:35:07;101468.78;;;20.39;100.00
54042;BME280;41156;51.508;5.406;2023-06-22T12:38:13;101465.75;;;20.35;100.00
54042;BME280;41156;51.508;5.406;2023-06-22T12:41:13;101446.78;;;20.28;100.00
54042;BME280;41156;51.508;5.406;2023-06-22T12:44:14;101459.34;;;20.19;100.00
54042;BME280;41156;51.508;5.406;2023-06-22T12:47:14;101456.00;;;20.12;100.00
54042;BME280;41156;51.508;5.406;2023-06-22T12:50:15;101446.59;;;20.03;100.00
54042;BME280;41156;51.508;5.406;2023-06-22T12:53:15;101439.16;;;19.98;100.00
54042;BME280;41156;51.508;5.406;2023-06-22T12:56:15;101436.13;;;19.94;100.00
54042;BME280;41156;51.508;5.406;2023-06-22T12:59:16;101439.38;;;19.91;100.00
54042;BME280;41156;51.508;5.406;2023-06-22T13:02:17;101424.84;;;19.91;100.00
54042;BME280;41156;51.508;5.406;2023-06-22T13:05:18;101426.53;;;19.92;100.00
54042;BME280;41156;51.508;5.406;2023-06-22T13:08:19;101421.31;;;19.95;100.00
54042;BME280;41156;51.508;5.406;2023-06-22T13:11:19;101428.41;;;19.91;100.00
54042;BME280;41156;51.508;5.406;2023-06-22T13:14:19;101426.78;;;19.90;100.00
54042;BME280;41156;51.508;5.406;2023-06-22T13:17:20;101429.53;;;19.90;100.00
54042;BME280;41156;51.508;5.406;2023-06-22T13:20:23;101412.22;;;19.90;100.00
54042;BME280;41156;51.508;5.406;2023-06-22T13:23:33;101405.88;;;19.84;100.00
54042;BME280;41156;51.508;5.406;2023-06-22T13:26:34;101398.97;;;19.76;100.00
54042;BME280;41156;51.508;5.406;2023-06-22T13:29:34;101391.44;;;19.67;100.00
54042;BME280;41156;51.508;5.406;2023-06-22T13:32:35;101384.84;;;19.63;100.00
54042;BME280;41156;51.508;5.406;2023-06-22T13:35:35;101372.22;;;19.62;100.00
54042;BME280;41156;51.508;5.406;2023-06-22T13:38:36;101373.06;;;19.62;100.00
54042;BME280;41156;51.508;5.406;2023-06-22T13:41:38;101370.06;;;19.64;100.00
54042;BME280;41156;51.508;5.406;2023-06-22T13:44:39;101362.41;;;19.66;100.00
54042;BME280;41156;51.508;5.406;2023-06-22T13:47:40;101364.03;;;19.67;100.00
54042;BME280;41156;51.508;5.406;2023-06-22T13:50:40;101369.00;;;19.70;100.00
54042;BME280;41156;51.508;5.406;2023-06-22T13:53:40;101365.75;;;19.73;100.00
54042;BME280;41156;51.508;5.406;2023-06-22T13:56:41;101362.72;;;19.74;100.00
54042;BME280;41156;51.508;5.406;2023-06-22T13:59:41;101363.75;;;19.63;100.00
54042;BME280;41156;51.508;5.406;2023-06-22T14:02:42;101363.16;;;19.56;100.00
54042;BME280;41156;51.508;5.406;2023-06-22T14:05:43;101369.69;;;19.50;100.00
54042;BME280;41156;51.508;5.406;2023-06-22T14:08:44;101353.75;;;19.47;100.00
54042;BME280;41156;51.508;5.406;2023-06-22T14:11:44;101353.75;;;19.47;100.00
54042;BME280;41156;51.508;5.406;2023-06-22T14:14:44;101357.31;;;19.42;100.00
54042;BME280;41156;51.508;5.406;2023-06-22T14:17:45;101364.13;;;19.39;100.00
54042;BME280;41156;51.508;5.406;2023-06-22T14:20:45;101363.00;;;19.35;100.00
54042;BME280;41156;51.508;5.406;2023-06-22T14:23:47;101348.16;;;19.31;100.00
54042;BME280;41156;51.508;5.406;2023-06-22T14:26:49;101347.34;;;19.31;100.00
54042;BME280;41156;51.508;5.406;2023-06-22T14:29:49;101349.53;;;19.29;100.00
54042;BME280;41156;51.508;5.406;2023-06-22T14:32:50;101345.63;;;19.25;100.00
54042;BME280;41156;51.508;5.406;2023-06-22T14:35:50;101349.47;;;19.23;100.00
54042;BME280;41156;51.508;5.406;2023-06-22T14:38:50;101350.00;;;19.20;100.00
54042;BME280;41156;51.508;5.406;2023-06-22T14:41:51;101342.03;;;19.19;100.00
54042;BME280;41156;51.508;5.406;2023-06-22T14:44:51;101334.06;;;19.17;100.00
54042;BME280;41156;51.508;5.406;2023-06-22T14:47:52;101316.50;;;19.13;100.00
54042;BME280;41156;51.508;5.406;2023-06-22T14:50:52;101311.00;;;19.13;100.00
54042;BME280;41156;51.508;5.406;2023-06-22T14:53:56;101316.22;;;19.15;100.00
54042;BME280;41156;51.508;5.406;2023-06-22T14:56:56;101314.38;;;19.20;100.00
54042;BME280;41156;51.508;5.406;2023-06-22T14:59:57;101323.47;;;19.26;100.00
54042;BME280;41156;51.508;5.406;2023-06-22T15:02:57;101322.13;;;19.29;100.00
54042;BME280;41156;51.508;5.406;2023-06-22T15:06:00;101323.75;;;19.30;100.00
54042;BME280;41156;51.508;5.406;2023-06-22T15:09:00;101318.53;;;19.28;100.00
54042;BME280;41156;51.508;5.406;2023-06-22T15:12:01;101326.75;;;19.28;100.00
54042;BME280;41156;51.508;5.406;2023-06-22T15:15:06;101333.34;;;19.27;100.00
54042;BME280;41156;51.508;5.406;2023-06-22T15:18:07;101327.84;;;19.27;100.00
54042;BME280;41156;51.508;5.406;2023-06-22T15:21:07;101331.69;;;19.26;100.00
54042;BME280;41156;51.508;5.406;2023-06-22T15:24:07;101329.44;;;19.23;100.00
54042;BME280;41156;51.508;5.406;2023-06-22T15:27:07;101333.56;;;19.20;100.00
54042;BME280;41156;51.508;5.406;2023-06-22T15:30:08;101331.34;;;19.17;100.00
54042;BME280;41156;51.508;5.406;2023-06-22T15:33:08;101333.50;;;19.15;100.00
54042;BME280;41156;51.508;5.406;2023-06-22T15:36:09;101330.78;;;19.15;100.00
54042;BME280;41156;51.508;5.406;2023-06-22T15:39:10;101334.59;;;19.14;100.00
54042;BME280;41156;51.508;5.406;2023-06-22T15:42:10;101335.66;;;19.13;100.00
54042;BME280;41156;51.508;5.406;2023-06-22T15:45:10;101328.28;;;19.14;100.00
54042;BME280;41156;51.508;5.406;2023-06-22T15:48:11;101329.88;;;19.10;100.00
54042;BME280;41156;51.508;5.406;2023-06-22T15:51:11;101323.84;;;19.08;100.00
54042;BME280;41156;51.508;5.406;2023-06-22T15:54:12;101311.78;;;19.03;100.00
54042;BME280;41156;51.508;5.406;2023-06-22T15:57:12;101314.78;;;19.02;100.00
54042;BME280;41156;51.508;5.406;2023-06-22T16:00:14;101313.09;;;19.01;100.00
54042;BME280;41156;51.508;5.406;2023-06-22T16:03:16;101312.84;;;19.02;100.00
54042;BME280;41156;51.508;5.406;2023-06-22T16:06:16;101308.75;;;19.05;100.00
54042;BME280;41156;51.508;5.406;2023-06-22T16:09:17;101309.59;;;19.06;100.00
54042;BME280;41156;51.508;5.406;2023-06-22T16:12:17;101307.41;;;19.08;100.00
54042;BME280;41156;51.508;5.406;2023-06-22T16:15:17;101309.91;;;19.09;100.00
54042;BME280;41156;51.508;5.406;2023-06-22T16:18:18;101318.66;;;19.11;100.00
54042;BME280;41156;51.508;5.406;2023-06-22T16:21:18;101325.81;;;19.12;100.00
54042;BME280;41156;51.508;5.406;2023-06-22T16:24:18;101328.56;;;19.12;100.00
54042;BME280;41156;51.508;5.406;2023-06-22T16:27:19;101331.84;;;19.14;100.00